Terminal Aerodrome Forecast
Issued by NWS Charleston, WV

Current Version | Previous Version | Graphics & Text | Print | Product List | Glossary On
Versions: 1 2 3 4 5 6 7 8 9 10 11 12 13 14 15 16 17 18 19 20 21 22 23 24 25 26 27
646
FTUS41 KRLX 222339
TAFPKB
TAF
KPKB 222339Z 2300/2324 19006KT P6SM -SHRA OVC060
     FM230130 17008KT P6SM BKN045
      TEMPO 2305/2307 4SM SHRA OVC025
     FM230700 21009G15KT P6SM OVC040
      TEMPO 2307/2308 4SM SHRA OVC025
     FM230800 22009KT P6SM OVC015
     FM231000 23009G15KT P6SM BKN040
     FM231300 23011G20KT P6SM BKN250
     FM231800 24013G26KT P6SM OVC015=

USA.gov is the U.S. government's official web portal to all federal, state and local government web resources and services.